Time;durP1;ratioP1;P1;durP2;ratioP2;P2;SDS_P1;SDS_P2;PMS_P1;PMS_P2;Temp;Humidity;BMP_temperature;BMP_pressure;BME280_temperature;BME280_humidity;BME280_pressure;Samples;Min_cycle;Max_cycle;Signal;HPM_P1;HPM_P2
2021/01/20 00:01:14;;;;;;;8.27;2.43;;;6.40;1.00;;;;;;5075215;28;20578;-68
2021/01/20 00:03:40;;;;;;;4.80;2.27;;;6.20;1.00;;;;;;5075175;28;20164;-68
2021/01/20 00:06:06;;;;;;;4.87;1.70;;;6.20;1.00;;;;;;5075240;28;20172;-68
2021/01/20 00:08:31;;;;;;;4.82;2.00;;;6.30;1.00;;;;;;5074946;28;20219;-68
2021/01/20 00:10:57;;;;;;;5.27;2.23;;;6.40;1.00;;;;;;5074908;28;20188;-68
2021/01/20 00:13:23;;;;;;;4.43;2.37;;;6.20;1.00;;;;;;5074983;28;20633;-67
2021/01/20 00:15:48;;;;;;;6.13;2.43;;;6.20;1.00;;;;;;5074957;28;20168;-68
2021/01/20 00:18:14;;;;;;;5.90;3.27;;;6.20;1.00;;;;;;5074952;28;20168;-68
2021/01/20 00:20:39;;;;;;;2.80;2.00;;;6.10;1.00;;;;;;5074850;28;20237;-67
2021/01/20 00:23:05;;;;;;;5.43;2.20;;;6.20;1.00;;;;;;5074850;28;20642;-68
2021/01/20 00:25:30;;;;;;;3.67;2.40;;;6.10;1.00;;;;;;5075358;28;20172;-68
2021/01/20 00:27:56;;;;;;;5.60;2.37;;;6.10;1.00;;;;;;5074693;28;20203;-68
2021/01/20 00:30:22;;;;;;;5.57;3.07;;;6.00;1.00;;;;;;5074753;28;20530;-68
2021/01/20 00:32:47;;;;;;;5.13;2.13;;;6.10;1.00;;;;;;5074587;28;20164;-68
2021/01/20 00:35:13;;;;;;;7.20;2.03;;;6.20;1.00;;;;;;5074543;28;20399;-68
2021/01/20 00:37:39;;;;;;;5.00;2.53;;;6.10;1.00;;;;;;5074544;28;20583;-68
2021/01/20 00:40:06;;;;;;;5.77;2.87;;;6.10;1.00;;;;;;5074498;28;20430;-68
2021/01/20 00:42:31;;;;;;;4.90;2.47;;;6.10;1.00;;;;;;5074704;28;20164;-68
2021/01/20 00:44:57;;;;;;;5.17;2.77;;;6.00;1.00;;;;;;5074324;28;20602;-68
2021/01/20 00:47:23;;;;;;;4.40;1.90;;;6.10;1.00;;;;;;5074250;28;20188;-68
2021/01/20 00:49:48;;;;;;;2.93;2.00;;;6.10;1.00;;;;;;5074293;28;20695;-68
2021/01/20 00:52:14;;;;;;;9.77;2.07;;;6.00;1.00;;;;;;5074185;28;20164;-67
2021/01/20 00:54:40;;;;;;;8.03;2.10;;;5.90;1.00;;;;;;5074349;28;20525;-68
2021/01/20 00:57:05;;;;;;;7.10;2.47;;;5.90;1.00;;;;;;5074078;28;20633;-68
2021/01/20 00:59:31;;;;;;;3.50;2.80;;;5.90;1.00;;;;;;5074009;28;20196;-66
2021/01/20 01:01:57;;;;;;;2.43;1.97;;;5.90;1.00;;;;;;5073992;28;20198;-68
2021/01/20 01:04:26;;;;;;;4.90;1.88;;;6.00;1.00;;;;;;5073949;28;20258;-67
2021/01/20 01:06:52;;;;;;;3.25;2.53;;;5.80;1.00;;;;;;5074210;28;20229;-67
2021/01/20 01:09:18;;;;;;;8.13;2.80;;;6.00;1.00;;;;;;5073706;28;20251;-68
2021/01/20 01:11:44;;;;;;;3.15;2.00;;;5.90;1.00;;;;;;5073746;28;20399;-68
2021/01/20 01:14:10;;;;;;;4.40;2.10;;;6.00;1.00;;;;;;5073773;28;20171;-67
2021/01/20 01:16:35;;;;;;;3.97;1.83;;;6.00;1.00;;;;;;5073910;28;20165;-68
2021/01/20 01:19:01;;;;;;;5.23;3.17;;;6.00;1.00;;;;;;5073641;28;20172;-67
2021/01/20 01:21:26;;;;;;;4.37;2.60;;;6.00;1.00;;;;;;5073903;28;20164;-67
2021/01/20 01:23:52;;;;;;;6.63;2.83;;;6.10;1.00;;;;;;5073847;28;20190;-67
2021/01/20 01:26:17;;;;;;;3.40;1.90;;;6.00;1.00;;;;;;5073849;28;20164;-67
2021/01/20 01:28:43;;;;;;;3.97;2.23;;;6.10;1.00;;;;;;5073414;28;20253;-67
2021/01/20 01:31:10;;;;;;;3.90;1.93;;;6.10;1.00;;;;;;5073372;28;20196;-67
2021/01/20 01:33:36;;;;;;;4.13;1.95;;;6.10;1.00;;;;;;5073400;28;20188;-67
2021/01/20 01:36:03;;;;;;;2.00;1.67;;;6.00;1.00;;;;;;5073354;28;20251;-67
2021/01/20 01:38:28;;;;;;;4.88;2.08;;;6.20;1.00;;;;;;5073264;28;20633;-67
2021/01/20 01:40:54;;;;;;;2.80;1.83;;;6.10;1.00;;;;;;5073204;28;20192;-67
2021/01/20 01:43:20;;;;;;;3.50;1.90;;;6.20;1.00;;;;;;5073299;28;20172;-67
2021/01/20 01:45:46;;;;;;;6.23;2.20;;;6.20;1.00;;;;;;5073241;28;20164;-67
2021/01/20 01:48:11;;;;;;;4.18;2.30;;;6.30;1.00;;;;;;5073410;28;20211;-66
2021/01/20 01:50:37;;;;;;;8.00;2.00;;;6.30;1.00;;;;;;5071863;28;20188;-67
2021/01/20 01:53:03;;;;;;;1.73;1.20;;;6.10;1.00;;;;;;5073238;28;20175;-68
2021/01/20 01:55:30;;;;;;;5.95;1.65;;;6.20;1.00;;;;;;5073076;28;20171;-67
2021/01/20 01:57:56;;;;;;;3.15;2.33;;;6.20;1.00;;;;;;5073083;28;20160;-67
2021/01/20 02:00:22;;;;;;;6.90;2.40;;;6.20;1.00;;;;;;5071771;28;20198;-67
2021/01/20 02:02:49;;;;;;;6.33;2.40;;;6.30;1.00;;;;;;5073175;28;20444;-67
2021/01/20 02:05:15;;;;;;;5.35;2.10;;;6.30;1.00;;;;;;5072824;28;20644;-67
2021/01/20 02:07:44;;;;;;;2.47;2.20;;;6.40;1.00;;;;;;5073224;28;20168;-67
2021/01/20 02:10:10;;;;;;;4.30;2.25;;;6.50;1.00;;;;;;5072803;28;20196;-67
2021/01/20 02:13:02;;;;;;;3.40;1.67;;;6.40;1.00;;;;;;5072931;28;20168;-67
2021/01/20 02:15:47;;;;;;;3.00;2.25;;;6.40;1.00;;;;;;5073533;28;20155;-67
2021/01/20 02:18:14;;;;;;;5.43;2.05;;;6.50;1.00;;;;;;5072855;28;20163;-67
2021/01/20 02:21:13;;;;;;;2.47;1.67;;;6.40;1.00;;;;;;5073103;28;20217;-67
2021/01/20 02:23:41;;;;;;;3.78;1.90;;;6.60;1.00;;;;;;5072887;28;20157;-67
2021/01/20 02:26:38;;;;;;;3.55;2.42;;;6.50;1.00;;;;;;5072817;28;20192;-67
2021/01/20 02:29:25;;;;;;;4.68;2.55;;;6.50;1.00;;;;;;5072840;28;20200;-67
2021/01/20 02:31:53;;;;;;;2.90;1.70;;;6.50;1.00;;;;;;5072824;28;20227;-67
2021/01/20 02:34:21;;;;;;;4.43;1.70;;;6.50;1.00;;;;;;5072787;28;20172;-67
2021/01/20 02:36:51;;;;;;;5.80;2.60;;;6.60;1.00;;;;;;5072864;28;20525;-67
2021/01/20 02:39:19;;;;;;;4.32;1.92;;;6.60;1.00;;;;;;5072886;28;20257;-67
2021/01/20 02:41:44;;;;;;;5.93;2.38;;;6.70;1.00;;;;;;5072679;28;20251;-67
2021/01/20 02:44:10;;;;;;;4.13;1.97;;;6.60;1.00;;;;;;5072579;28;20653;-67
2021/01/20 02:46:38;;;;;;;4.63;2.20;;;6.60;1.00;;;;;;5072563;28;20657;-67
2021/01/20 02:49:04;;;;;;;3.35;2.10;;;6.70;1.00;;;;;;5072560;28;20200;-67
2021/01/20 02:51:56;;;;;;;4.55;2.42;;;6.80;1.00;;;;;;5072862;28;20176;-68
2021/01/20 02:54:23;;;;;;;3.28;1.70;;;6.80;1.00;;;;;;5072529;28;20156;-67
2021/01/20 02:56:51;;;;;;;2.80;1.88;;;6.70;1.00;;;;;;5072493;28;20160;-68
2021/01/20 02:59:21;;;;;;;2.38;2.03;;;6.70;1.00;;;;;;5072413;28;20612;-67
2021/01/20 03:01:52;;;;;;;3.67;2.20;;;6.80;1.00;;;;;;5072404;28;20172;-68
2021/01/20 03:04:20;;;;;;;4.95;2.20;;;6.80;1.00;;;;;;5072566;28;20249;-68
2021/01/20 03:06:46;;;;;;;2.10;1.90;;;6.90;1.00;;;;;;5072663;28;20164;-67
2021/01/20 03:09:16;;;;;;;3.42;1.73;;;6.80;1.00;;;;;;5072670;28;20250;-67
2021/01/20 03:11:49;;;;;;;3.03;1.80;;;6.80;1.00;;;;;;5072414;28;20164;-67
2021/01/20 03:14:20;;;;;;;3.38;1.90;;;6.80;1.00;;;;;;5072375;28;20214;-67
2021/01/20 03:16:46;;;;;;;7.65;2.63;;;6.80;1.00;;;;;;5073009;28;20527;-67
2021/01/20 03:19:12;;;;;;;4.32;2.20;;;6.90;1.00;;;;;;5076225;28;20172;-67
2021/01/20 03:21:38;;;;;;;23.20;14.20;;;6.90;1.00;;;;;;5075902;28;20478;-67
2021/01/20 03:24:04;;;;;;;3.93;1.80;;;6.80;1.00;;;;;;5076118;28;20172;-67
2021/01/20 03:26:29;;;;;;;3.97;2.40;;;7.00;1.00;;;;;;5076115;28;20408;-67
2021/01/20 03:28:55;;;;;;;2.33;2.00;;;7.00;1.00;;;;;;5075634;28;20200;-67
2021/01/20 03:31:21;;;;;;;4.40;2.23;;;7.00;1.00;;;;;;5075775;28;20164;-67
2021/01/20 03:33:46;;;;;;;4.57;2.53;;;7.00;1.00;;;;;;5075698;28;20171;-67
2021/01/20 03:36:12;;;;;;;4.30;2.40;;;7.00;1.00;;;;;;5075700;28;20156;-67
2021/01/20 03:38:37;;;;;;;3.50;1.83;;;7.00;1.00;;;;;;5075615;28;20306;-67
2021/01/20 03:41:03;;;;;;;4.50;2.23;;;7.00;1.00;;;;;;5075528;28;20273;-67
2021/01/20 03:43:29;;;;;;;2.63;2.05;;;7.00;1.00;;;;;;5075559;28;20260;-67
2021/01/20 03:45:54;;;;;;;3.40;2.03;;;7.00;1.00;;;;;;5075530;28;20654;-67
2021/01/20 03:48:20;;;;;;;3.93;2.03;;;7.00;1.00;;;;;;5075327;28;20237;-67
2021/01/20 03:50:46;;;;;;;3.03;2.20;;;7.00;1.00;;;;;;5075353;28;20219;-67
2021/01/20 03:53:11;;;;;;;4.60;2.23;;;7.10;1.00;;;;;;5075650;28;20214;-67
2021/01/20 03:55:37;;;;;;;3.40;2.17;;;7.00;1.00;;;;;;5075409;28;20215;-67
2021/01/20 03:58:02;;;;;;;4.90;2.40;;;7.00;1.00;;;;;;5075343;28;20222;-67
2021/01/20 04:00:28;;;;;;;4.87;2.60;;;7.00;1.00;;;;;;5075239;28;20184;-67
2021/01/20 04:02:54;;;;;;;6.40;2.80;;;7.10;1.00;;;;;;5075202;28;20169;-68
2021/01/20 04:05:19;;;;;;;6.90;2.30;;;7.10;1.00;;;;;;5075693;28;20176;-67
2021/01/20 04:07:45;;;;;;;6.50;2.43;;;7.10;1.00;;;;;;5075109;28;20164;-68
2021/01/20 04:10:11;;;;;;;4.37;2.83;;;7.10;1.00;;;;;;5075015;28;20203;-68
2021/01/20 04:12:37;;;;;;;5.53;2.35;;;7.10;1.00;;;;;;5074919;28;20168;-68
2021/01/20 04:15:05;;;;;;;4.28;2.20;;;7.00;1.00;;;;;;5075005;28;20518;-68
2021/01/20 04:17:30;;;;;;;4.60;2.50;;;7.10;1.00;;;;;;5073668;28;20168;-68
2021/01/20 04:19:56;;;;;;;6.60;2.53;;;7.20;1.00;;;;;;5074961;28;20192;-68
2021/01/20 04:22:21;;;;;;;4.23;2.33;;;7.20;1.00;;;;;;5075060;28;20261;-68
2021/01/20 04:24:47;;;;;;;6.77;2.53;;;7.10;1.00;;;;;;5075038;28;20210;-68
2021/01/20 04:27:13;;;;;;;5.37;2.47;;;7.20;1.00;;;;;;5074539;28;20406;-68
2021/01/20 04:29:38;;;;;;;4.10;2.50;;;7.10;1.00;;;;;;5074368;28;20574;-68
2021/01/20 04:32:04;;;;;;;2.80;2.50;;;7.20;1.00;;;;;;5074604;28;20633;-68
2021/01/20 04:34:30;;;;;;;6.20;2.50;;;7.20;1.00;;;;;;5074578;28;20207;-68
2021/01/20 04:36:55;;;;;;;4.17;2.27;;;7.30;1.00;;;;;;5074508;28;20172;-68
2021/01/20 04:39:21;;;;;;;6.13;2.70;;;7.20;1.00;;;;;;5074487;28;20192;-68
2021/01/20 04:41:46;;;;;;;4.43;2.70;;;7.20;1.00;;;;;;5074626;28;20168;-68
2021/01/20 04:44:12;;;;;;;5.43;2.33;;;7.30;1.00;;;;;;5074211;28;20168;-68
2021/01/20 04:46:41;;;;;;;3.60;2.20;;;7.20;1.00;;;;;;5074464;28;20201;-68
2021/01/20 04:49:09;;;;;;;6.22;2.95;;;7.20;1.00;;;;;;5074013;28;20204;-68
2021/01/20 04:51:40;;;;;;;4.75;2.97;;;7.20;1.00;;;;;;5074033;28;20693;-68
2021/01/20 04:54:07;;;;;;;4.68;3.17;;;7.20;1.00;;;;;;5074022;28;20168;-68
2021/01/20 04:56:33;;;;;;;6.07;2.53;;;7.20;1.00;;;;;;5073786;28;20171;-68
2021/01/20 04:58:59;;;;;;;5.57;3.00;;;7.20;1.00;;;;;;5073877;28;20168;-69
2021/01/20 05:01:25;;;;;;;4.53;2.87;;;7.10;1.00;;;;;;5073893;28;20285;-68
2021/01/20 05:03:52;;;;;;;3.17;2.35;;;7.20;1.00;;;;;;5073814;28;20224;-68
2021/01/20 05:06:18;;;;;;;4.75;2.70;;;7.10;1.00;;;;;;5073638;28;20168;-68
2021/01/20 05:08:44;;;;;;;6.20;2.73;;;7.20;1.00;;;;;;5073562;28;20192;-68
2021/01/20 05:11:09;;;;;;;7.50;2.70;;;7.30;1.00;;;;;;5072148;28;20188;-68
2021/01/20 05:13:35;;;;;;;4.87;2.80;;;7.30;1.00;;;;;;5073577;28;20169;-67
2021/01/20 05:16:00;;;;;;;5.13;2.50;;;7.20;1.00;;;;;;5073339;28;20168;-67
2021/01/20 05:18:26;;;;;;;2.77;1.80;;;7.10;1.00;;;;;;5073483;28;20168;-68
2021/01/20 05:20:52;;;;;;;3.33;2.27;;;7.20;1.00;;;;;;5073559;28;20688;-68
2021/01/20 05:23:25;;;;;;;6.87;2.37;;;7.20;1.00;;;;;;5073440;28;20452;-67
2021/01/20 05:25:51;;;;;;;4.03;2.30;;;7.30;1.00;;;;;;5073527;28;20469;-68
2021/01/20 05:28:25;;;;;;;3.88;2.40;;;7.30;1.00;;;;;;5073089;28;20223;-68
2021/01/20 05:30:52;;;;;;;4.53;2.45;;;7.30;1.00;;;;;;5073326;28;20183;-68
2021/01/20 05:33:25;;;;;;;5.05;2.88;;;7.30;1.00;;;;;;5073178;28;20584;-68
2021/01/20 05:36:13;;;;;;;4.30;2.63;;;7.20;1.00;;;;;;5073442;28;20184;-68
2021/01/20 05:38:40;;;;;;;6.25;2.55;;;7.30;1.00;;;;;;5073366;28;20255;-68
2021/01/20 05:41:23;;;;;;;7.50;2.53;;;7.30;1.00;;;;;;5072573;28;20184;-68
2021/01/20 05:43:51;;;;;;;7.68;2.50;;;7.30;1.00;;;;;;5073893;28;20168;-68
2021/01/20 05:46:34;;;;;;;8.32;2.65;;;7.30;1.00;;;;;;5073136;28;20164;-67
2021/01/20 05:49:00;;;;;;;4.20;2.40;;;7.50;1.00;;;;;;5072827;28;20203;-67
2021/01/20 05:51:26;;;;;;;19.35;4.63;;;7.50;1.00;;;;;;5073236;28;20168;-68
2021/01/20 05:53:56;;;;;;;7.00;3.57;;;7.40;1.00;;;;;;5073193;28;20167;-67
2021/01/20 05:56:29;;;;;;;15.60;3.00;;;7.50;1.00;;;;;;5073279;28;20434;-67
2021/01/20 05:58:55;;;;;;;6.15;2.03;;;7.40;1.00;;;;;;5072941;28;20214;-68
2021/01/20 06:01:21;;;;;;;3.75;2.38;;;7.50;1.00;;;;;;5073337;28;20553;-68
2021/01/20 06:03:47;;;;;;;5.20;2.70;;;7.50;1.00;;;;;;5072688;28;20180;-68
2021/01/20 06:06:14;;;;;;;4.67;2.40;;;7.50;1.00;;;;;;5071577;28;20183;-68
2021/01/20 06:08:41;;;;;;;7.68;3.25;;;7.50;1.00;;;;;;5072426;28;20257;-68
2021/01/20 06:11:06;;;;;;;6.85;2.50;;;7.50;1.00;;;;;;5072604;28;20196;-68
2021/01/20 06:13:33;;;;;;;4.50;2.37;;;7.50;1.00;;;;;;5072897;28;20176;-67
2021/01/20 06:16:09;;;;;;;5.78;1.77;;;7.50;1.00;;;;;;5072754;28;20171;-68
2021/01/20 06:18:39;;;;;;;2.42;2.03;;;7.50;1.00;;;;;;5072954;28;20152;-68
2021/01/20 06:21:06;;;;;;;5.15;1.65;;;7.60;1.00;;;;;;5072804;28;20231;-68
2021/01/20 06:23:36;;;;;;;5.45;1.85;;;7.50;1.00;;;;;;5072911;28;20175;-67
2021/01/20 06:26:13;;;;;;;12.25;5.13;;;7.50;1.00;;;;;;5071746;28;20455;-68
2021/01/20 06:28:45;;;;;;;5.57;2.65;;;7.50;1.00;;;;;;5072628;28;20184;-68
2021/01/20 06:31:13;;;;;;;4.45;2.85;;;7.50;1.00;;;;;;5072598;28;20184;-68
2021/01/20 06:33:39;;;;;;;3.97;2.60;;;7.50;1.00;;;;;;5072292;28;20168;-68
2021/01/20 06:36:05;;;;;;;10.70;2.42;;;7.60;1.00;;;;;;5072285;28;20160;-68
2021/01/20 06:38:30;;;;;;;3.90;2.70;;;7.50;1.00;;;;;;5072289;28;20170;-68
2021/01/20 06:40:57;;;;;;;3.73;2.30;;;7.40;1.00;;;;;;5072253;28;20935;-68
2021/01/20 06:43:46;;;;;;;7.57;2.22;;;7.40;1.00;;;;;;5072439;28;20218;-67
2021/01/20 06:46:18;;;;;;;3.80;2.35;;;7.50;1.00;;;;;;5072345;28;20503;-67
2021/01/20 06:48:56;;;;;;;8.15;3.90;;;7.60;1.00;;;;;;5072183;28;20202;-68
2021/01/20 06:51:26;;;;;;;8.70;2.53;;;7.50;1.00;;;;;;5074218;28;20160;-68
2021/01/20 06:54:06;;;;;;;3.10;2.22;;;7.50;1.00;;;;;;5074999;28;20536;-68
2021/01/20 06:56:38;;;;;;;4.20;2.42;;;7.50;1.00;;;;;;5076045;28;20164;-68
2021/01/20 06:59:25;;;;;;;6.60;3.00;;;7.50;1.00;;;;;;5076111;28;20168;-67
2021/01/20 07:02:03;;;;;;;4.22;2.70;;;7.60;1.00;;;;;;5076260;28;20168;-68
2021/01/20 07:04:37;;;;;;;5.95;2.50;;;7.60;1.00;;;;;;5075986;28;20168;-68
2021/01/20 07:07:06;;;;;;;3.60;2.50;;;7.50;1.00;;;;;;5076395;28;20171;-67
2021/01/20 07:09:50;;;;;;;2.88;2.15;;;7.60;1.00;;;;;;5075841;28;20284;-67
2021/01/20 07:12:23;;;;;;;4.60;1.83;;;7.60;1.00;;;;;;5075848;28;20164;-67
2021/01/20 07:14:50;;;;;;;3.80;2.35;;;7.50;1.00;;;;;;5075740;28;20165;-67
2021/01/20 07:17:17;;;;;;;3.47;2.65;;;7.60;1.00;;;;;;5075897;28;20196;-67
2021/01/20 07:19:45;;;;;;;2.42;1.70;;;7.50;1.00;;;;;;5075758;28;20206;-67
2021/01/20 07:22:11;;;;;;;3.55;1.80;;;7.50;1.00;;;;;;5075464;28;20179;-68
2021/01/20 07:24:37;;;;;;;4.90;2.85;;;7.50;1.00;;;;;;5075302;28;20178;-68
2021/01/20 07:27:04;;;;;;;3.83;2.10;;;7.60;1.00;;;;;;5075118;28;20180;-67
2021/01/20 07:29:32;;;;;;;3.20;2.47;;;7.70;1.00;;;;;;5075443;28;20834;-67
2021/01/20 07:31:58;;;;;;;6.40;2.85;;;7.70;1.00;;;;;;5075533;28;20160;-67
2021/01/20 07:34:37;;;;;;;3.90;2.47;;;7.70;1.00;;;;;;5075622;28;20168;-68
2021/01/20 07:37:13;;;;;;;5.63;2.45;;;7.70;1.00;;;;;;5075256;28;20156;-67
2021/01/20 07:39:40;;;;;;;14.45;4.53;;;7.70;1.00;;;;;;5075322;28;20241;-67
2021/01/20 07:42:06;;;;;;;4.10;2.45;;;7.70;1.00;;;;;;5075109;28;20290;-67
2021/01/20 07:44:32;;;;;;;7.47;3.78;;;7.80;1.00;;;;;;5075297;28;20528;-67
2021/01/20 07:47:00;;;;;;;10.30;3.22;;;7.80;1.00;;;;;;5075118;28;20529;-67
2021/01/20 07:49:25;;;;;;;9.73;3.42;;;7.80;1.00;;;;;;5074987;28;20718;-66
2021/01/20 07:52:10;;;;;;;5.70;2.53;;;7.90;1.00;;;;;;5075102;28;20268;-67
2021/01/20 07:54:48;;;;;;;3.13;1.83;;;7.70;1.00;;;;;;5075495;28;20508;-65
2021/01/20 07:57:21;;;;;;;6.20;2.00;;;7.80;1.00;;;;;;5075308;28;20231;-67
2021/01/20 08:00:02;;;;;;;2.72;1.95;;;7.80;1.00;;;;;;5075298;28;20234;-67
2021/01/20 08:02:28;;;;;;;1.67;1.42;;;7.80;1.00;;;;;;5074337;28;20250;-67
2021/01/20 08:05:00;;;;;;;4.13;2.00;;;7.80;1.00;;;;;;5075455;28;20214;-67
2021/01/20 08:07:26;;;;;;;7.00;2.20;;;7.80;1.00;;;;;;5075253;28;20173;-65
2021/01/20 08:09:52;;;;;;;22.40;4.07;;;7.90;1.00;;;;;;5075249;28;20207;-67
2021/01/20 08:12:27;;;;;;;13.43;3.10;;;7.90;1.00;;;;;;5074725;28;20477;-66
2021/01/20 08:14:53;;;;;;;6.20;3.33;;;8.00;1.00;;;;;;5073585;28;20394;-66
2021/01/20 08:17:19;;;;;;;4.20;2.30;;;7.80;1.00;;;;;;5075095;28;20172;-67
2021/01/20 08:19:47;;;;;;;8.80;3.00;;;7.90;1.00;;;;;;5074881;28;20423;-67
2021/01/20 08:22:14;;;;;;;5.10;2.25;;;7.90;1.00;;;;;;5074711;28;20263;-66
2021/01/20 08:24:45;;;;;;;4.47;2.85;;;7.90;1.00;;;;;;5074757;28;20164;-67
2021/01/20 08:27:12;;;;;;;3.40;2.17;;;7.90;1.00;;;;;;5075052;28;20172;-67
2021/01/20 08:29:54;;;;;;;4.90;2.80;;;7.80;1.00;;;;;;5075529;28;20200;-67
2021/01/20 08:32:20;;;;;;;7.60;2.60;;;7.80;1.00;;;;;;5074625;28;20156;-67
2021/01/20 08:34:47;;;;;;;8.02;2.95;;;7.90;1.00;;;;;;5074778;28;20217;-67
2021/01/20 08:37:18;;;;;;;15.02;3.38;;;7.90;1.00;;;;;;5074034;28;20166;-67
2021/01/20 08:39:54;;;;;;;19.65;4.38;;;7.90;1.00;;;;;;5074090;28;20191;-67
2021/01/20 08:42:30;;;;;;;14.25;3.80;;;8.00;1.00;;;;;;5074308;28;20168;-66
2021/01/20 08:45:16;;;;;;;16.92;5.32;;;8.00;1.00;;;;;;5074448;28;20164;-67
2021/01/20 08:47:49;;;;;;;9.07;3.10;;;7.90;1.00;;;;;;5073894;28;20232;-67
2021/01/20 08:50:19;;;;;;;6.97;2.78;;;8.00;1.00;;;;;;5073638;28;20211;-66
2021/01/20 08:52:46;;;;;;;3.05;1.90;;;8.00;1.00;;;;;;5073867;28;20210;-67
2021/01/20 08:55:35;;;;;;;4.72;2.90;;;8.10;1.00;;;;;;5073845;28;20179;-67
2021/01/20 08:58:34;;;;;;;4.65;2.42;;;7.90;1.00;;;;;;5073536;28;20149;-67
2021/01/20 09:01:09;;;;;;;4.18;2.80;;;8.00;1.00;;;;;;5050621;28;20200;-67
2021/01/20 09:03:36;;;;;;;9.43;3.25;;;8.00;1.00;;;;;;5073365;28;20148;-67
2021/01/20 09:06:05;;;;;;;4.75;2.53;;;7.90;1.00;;;;;;5073452;28;20176;-66
2021/01/20 09:08:35;;;;;;;4.88;2.60;;;8.00;1.00;;;;;;5071823;28;20563;-66
2021/01/20 09:11:01;;;;;;;9.27;2.83;;;7.90;1.00;;;;;;5073200;28;20189;-66
2021/01/20 09:13:27;;;;;;;3.70;2.50;;;8.00;1.00;;;;;;5073504;28;20171;-66
2021/01/20 09:15:54;;;;;;;7.57;3.42;;;8.10;1.00;;;;;;5071214;28;20309;-66
2021/01/20 09:18:22;;;;;;;3.40;2.60;;;8.10;1.00;;;;;;5073958;28;20164;-67
2021/01/20 09:20:48;;;;;;;4.90;3.30;;;8.10;1.00;;;;;;5073238;28;20180;-67
2021/01/20 09:23:14;;;;;;;5.53;2.70;;;8.10;1.00;;;;;;5073223;28;20176;-67
2021/01/20 09:25:40;;;;;;;6.07;2.22;;;8.10;1.00;;;;;;5073336;28;20399;-67
2021/01/20 09:28:07;;;;;;;3.13;1.90;;;8.10;1.00;;;;;;5073260;28;20164;-67
2021/01/20 09:30:33;;;;;;;4.20;2.35;;;8.20;1.00;;;;;;5071731;28;20196;-68
2021/01/20 09:32:59;;;;;;;4.82;2.42;;;8.20;1.00;;;;;;5073168;28;20191;-68
2021/01/20 09:35:25;;;;;;;2.60;1.90;;;8.30;1.00;;;;;;5073088;28;20164;-68
2021/01/20 09:37:53;;;;;;;6.53;3.37;;;8.30;1.00;;;;;;5072973;28;20171;-68
2021/01/20 09:40:21;;;;;;;2.85;2.20;;;8.20;1.00;;;;;;5071451;28;20441;-68
2021/01/20 09:42:47;;;;;;;4.80;2.60;;;8.20;1.00;;;;;;5073507;28;20199;-67
2021/01/20 09:45:14;;;;;;;5.85;2.60;;;8.30;1.00;;;;;;5072826;28;20706;-66
2021/01/20 09:47:45;;;;;;;7.75;3.17;;;8.30;1.00;;;;;;5072576;28;20225;-67
2021/01/20 09:50:12;;;;;;;4.53;2.60;;;8.40;1.00;;;;;;5072929;28;20196;-67
2021/01/20 09:52:38;;;;;;;4.25;3.28;;;8.40;1.00;;;;;;5072652;28;20160;-67
2021/01/20 09:55:05;;;;;;;9.13;3.43;;;8.50;1.00;;;;;;5071248;28;20187;-67
2021/01/20 09:57:30;;;;;;;8.88;4.32;;;8.60;1.00;;;;;;5072759;28;20160;-66
2021/01/20 09:59:56;;;;;;;7.43;3.40;;;8.70;1.00;;;;;;5072515;28;20271;-67
2021/01/20 10:02:22;;;;;;;42.23;10.43;;;8.70;1.00;;;;;;5072624;28;20269;-67
2021/01/20 10:04:47;;;;;;;14.50;4.30;;;8.70;1.00;;;;;;5072546;28;20656;-67
2021/01/20 10:07:14;;;;;;;3.77;2.60;;;8.70;1.00;;;;;;5071455;28;20176;-66
2021/01/20 10:09:40;;;;;;;9.20;3.92;;;8.70;1.00;;;;;;5072600;28;20257;-67
2021/01/20 10:12:07;;;;;;;5.43;2.95;;;8.60;1.00;;;;;;5072607;28;20247;-67
2021/01/20 10:14:33;;;;;;;6.10;2.45;;;8.70;1.00;;;;;;5072449;28;20180;-67
2021/01/20 10:16:59;;;;;;;5.63;2.97;;;8.80;1.00;;;;;;5072671;28;20210;-67
2021/01/20 10:19:24;;;;;;;4.95;2.17;;;8.90;1.00;;;;;;5072389;28;20469;-66
2021/01/20 10:21:50;;;;;;;5.47;2.37;;;8.90;1.00;;;;;;5071201;28;20204;-69
2021/01/20 10:24:15;;;;;;;3.63;2.40;;;8.80;1.00;;;;;;5072798;28;20172;-70
2021/01/20 10:26:41;;;;;;;3.80;2.30;;;8.80;1.00;;;;;;5075458;28;20164;-68
2021/01/20 10:29:07;;;;;;;6.63;3.10;;;8.90;1.00;;;;;;5076718;28;20188;-67
2021/01/20 10:31:38;;;;;;;6.95;3.90;;;9.00;1.00;;;;;;5076759;28;20161;-67
2021/01/20 10:34:05;;;;;;;5.10;2.75;;;8.80;1.00;;;;;;5076585;28;20165;-67
2021/01/20 10:36:32;;;;;;;11.95;3.50;;;8.90;1.00;;;;;;5076667;28;20696;-68
2021/01/20 10:38:58;;;;;;;6.15;3.13;;;9.10;1.00;;;;;;5076518;28;20180;-69
2021/01/20 10:41:25;;;;;;;5.53;2.92;;;9.20;1.00;;;;;;5076548;28;20172;-69
2021/01/20 10:43:51;;;;;;;11.82;3.22;;;9.30;1.00;;;;;;5076484;28;20180;-69
2021/01/20 10:46:17;;;;;;;2.80;2.13;;;9.20;1.00;;;;;;5076586;28;20168;-69
2021/01/20 10:48:44;;;;;;;7.13;4.20;;;9.20;1.00;;;;;;5076284;28;20464;-69
2021/01/20 10:51:10;;;;;;;3.30;2.35;;;9.20;1.00;;;;;;5076859;28;20397;-69
2021/01/20 10:53:40;;;;;;;9.13;2.25;;;9.20;1.00;;;;;;5075402;28;20169;-69
2021/01/20 10:56:09;;;;;;;3.87;2.53;;;9.20;1.00;;;;;;5076348;28;20529;-68
2021/01/20 10:58:35;;;;;;;12.85;4.35;;;9.30;1.00;;;;;;5076514;28;20414;-68
2021/01/20 11:01:01;;;;;;;7.13;2.60;;;9.30;1.00;;;;;;5076197;28;20204;-69
2021/01/20 11:03:27;;;;;;;3.55;1.85;;;9.30;1.00;;;;;;5076721;28;20418;-69
2021/01/20 11:05:53;;;;;;;7.93;2.80;;;9.30;1.00;;;;;;5075845;28;20217;-70
2021/01/20 11:08:20;;;;;;;8.27;3.70;;;9.40;1.00;;;;;;5075647;28;20639;-69
2021/01/20 11:10:46;;;;;;;9.80;2.83;;;9.60;1.00;;;;;;5076224;28;20931;-69
2021/01/20 11:13:11;;;;;;;5.07;2.23;;;9.50;1.00;;;;;;5076187;28;20168;-69
2021/01/20 11:15:38;;;;;;;9.60;2.90;;;9.40;1.00;;;;;;5076094;28;20395;-69
2021/01/20 11:18:05;;;;;;;2.63;2.28;;;9.50;1.00;;;;;;5075631;28;20222;-68
2021/01/20 11:20:32;;;;;;;2.47;2.10;;;9.40;1.00;;;;;;5076275;28;20199;-69
2021/01/20 11:22:57;;;;;;;2.85;1.88;;;9.40;1.00;;;;;;5076554;28;20398;-68
2021/01/20 11:25:23;;;;;;;4.40;2.13;;;9.50;1.00;;;;;;5076052;28;20192;-69
2021/01/20 11:27:50;;;;;;;4.00;2.77;;;9.50;1.00;;;;;;5077083;28;20216;-68
2021/01/20 11:30:16;;;;;;;5.20;1.95;;;9.60;1.00;;;;;;5078784;28;20203;-67
2021/01/20 11:32:42;;;;;;;3.67;2.05;;;9.40;1.00;;;;;;5076322;28;20217;-69
2021/01/20 11:35:08;;;;;;;4.10;2.60;;;9.40;1.00;;;;;;5075599;28;20230;-69
2021/01/20 11:37:34;;;;;;;12.52;3.67;;;9.40;1.00;;;;;;5074331;28;20160;-69
2021/01/20 11:40:03;;;;;;;7.83;3.07;;;9.40;1.00;;;;;;5075486;28;20548;-69
2021/01/20 11:42:29;;;;;;;6.30;3.15;;;9.50;1.00;;;;;;5075449;28;20322;-69
2021/01/20 11:44:55;;;;;;;2.95;2.20;;;9.40;1.00;;;;;;5075506;28;20191;-69
2021/01/20 11:47:20;;;;;;;5.43;2.30;;;9.40;1.00;;;;;;5075186;28;20188;-69
2021/01/20 11:49:46;;;;;;;2.53;1.90;;;9.50;1.00;;;;;;5074693;28;20210;-69
2021/01/20 11:52:11;;;;;;;3.23;2.03;;;9.60;1.00;;;;;;5075258;28;20170;-69
2021/01/20 11:54:37;;;;;;;7.20;3.27;;;9.50;1.00;;;;;;5075312;28;20637;-69
2021/01/20 11:57:03;;;;;;;10.37;3.90;;;9.60;1.00;;;;;;5075051;28;20537;-69
2021/01/20 11:59:28;;;;;;;45.50;8.57;;;9.70;1.00;;;;;;5074953;28;20595;-68
2021/01/20 12:01:54;;;;;;;6.20;2.33;;;9.70;1.00;;;;;;5075626;28;20172;-69
2021/01/20 12:04:19;;;;;;;10.33;4.83;;;9.70;1.00;;;;;;5075440;28;20199;-70
2021/01/20 12:06:45;;;;;;;16.07;4.63;;;9.40;1.00;;;;;;5075480;28;20169;-69
2021/01/20 12:09:10;;;;;;;8.83;4.03;;;9.60;1.00;;;;;;5075645;28;20546;-69
2021/01/20 12:11:36;;;;;;;14.07;3.73;;;9.50;1.00;;;;;;5074773;28;20243;-69
2021/01/20 12:14:01;;;;;;;7.83;2.90;;;9.50;1.00;;;;;;5075482;28;20168;-69
2021/01/20 12:16:27;;;;;;;4.00;2.17;;;9.50;1.00;;;;;;5075200;28;20165;-67
2021/01/20 12:18:52;;;;;;;3.30;2.53;;;9.50;1.00;;;;;;5075213;28;20187;-69
2021/01/20 12:21:18;;;;;;;2.97;1.97;;;9.40;1.00;;;;;;5074821;28;20222;-69
2021/01/20 12:23:44;;;;;;;9.13;2.90;;;9.40;1.00;;;;;;5075398;28;20228;-69
2021/01/20 12:26:09;;;;;;;4.47;2.10;;;9.30;1.00;;;;;;5074544;28;20223;-69
2021/01/20 12:28:36;;;;;;;6.40;2.63;;;9.20;1.00;;;;;;5074642;28;20194;-71
2021/01/20 12:31:01;;;;;;;5.28;3.58;;;9.20;1.00;;;;;;5074361;28;20643;-67
2021/01/20 12:33:27;;;;;;;7.20;3.20;;;9.30;1.00;;;;;;5074758;28;20173;-68
2021/01/20 12:35:53;;;;;;;6.53;2.43;;;9.20;1.00;;;;;;5073265;28;20170;-68
2021/01/20 12:38:18;;;;;;;6.13;2.90;;;9.20;1.00;;;;;;5075097;28;20166;-68
2021/01/20 12:40:44;;;;;;;5.43;2.73;;;9.20;1.00;;;;;;5074291;28;20199;-69
2021/01/20 12:43:09;;;;;;;5.70;2.97;;;9.20;1.00;;;;;;5072978;28;20259;-67
2021/01/20 12:45:35;;;;;;;7.83;3.70;;;9.20;1.00;;;;;;5074325;28;20294;-69
2021/01/20 12:48:03;;;;;;;8.77;3.37;;;9.20;1.00;;;;;;5074240;28;20184;-69
2021/01/20 12:50:29;;;;;;;4.20;2.57;;;9.20;1.00;;;;;;5073825;28;20225;-67
2021/01/20 12:52:54;;;;;;;6.23;2.80;;;9.10;1.00;;;;;;5074006;28;20489;-69
2021/01/20 12:55:20;;;;;;;4.97;2.70;;;9.00;1.00;;;;;;5074260;28;20410;-69
2021/01/20 12:57:46;;;;;;;6.00;3.27;;;9.00;1.00;;;;;;5073987;28;20634;-69
2021/01/20 13:00:12;;;;;;;12.57;2.87;;;9.10;1.00;;;;;;5074209;28;20432;-70
2021/01/20 13:02:37;;;;;;;5.10;2.60;;;9.20;1.00;;;;;;5073896;28;20923;-69
2021/01/20 13:05:04;;;;;;;6.23;3.20;;;9.20;1.00;;;;;;5073820;28;20411;-70
2021/01/20 13:07:29;;;;;;;8.37;3.27;;;9.20;1.00;;;;;;5073309;28;20172;-69
2021/01/20 13:09:57;;;;;;;7.00;3.20;;;9.30;1.00;;;;;;5073789;28;20975;-69
2021/01/20 13:12:23;;;;;;;12.32;4.15;;;9.30;1.00;;;;;;5073380;28;20162;-68